< < Back
Terminal Aerodrome Forecast


Current Version              Previous Versions:   1  2  3  4  5  6  7  8  9  

Terminal Aerodrome Forecast

182
FTUS44 KOHX 271700
TAFCSV
TAF
KCSV 271722Z 2718/2818 30009KT P6SM BKN012
     FM271900 31010KT P6SM BKN035
     FM280000 32004KT P6SM BKN035
     FM280600 32002KT P6SM BKN090=

Latest METAR

928
SAUS70 KWBC 272200 RRN
MTRCSV
METAR KCSV 272153Z AUTO 28009KT 10SM OVC019 M01/M06 A3033 RMK AO2 SLP284
T10061056


USA.gov is the U.S. government's official web portal to all federal, state and local government web resources and services.